Time;durP1;ratioP1;P1;durP2;ratioP2;P2;SDS_P1;SDS_P2;PMS_P1;PMS_P2;Temp;Humidity;BMP_temperature;BMP_pressure;BME280_temperature;BME280_humidity;BME280_pressure;Samples;Min_cycle;Max_cycle;Signal;HPM_P1;HPM_P2
2022/07/05 00:00:00;;;;;;;2.30;1.33;;;13.60;99.90;;;;;;5079144;28;20021;-52
2022/07/05 00:02:26;;;;;;;3.70;1.65;;;13.60;99.90;;;;;;5068564;28;20029;-52
2022/07/05 00:04:51;;;;;;;1.60;1.20;;;13.60;99.90;;;;;;5075177;28;20029;-51
2022/07/05 00:07:18;;;;;;;1.55;1.25;;;13.60;99.90;;;;;;5052047;28;20166;-51
2022/07/05 00:09:56;;;;;;;1.75;1.65;;;13.60;99.90;;;;;;5068772;28;20028;-52
2022/07/05 00:12:25;;;;;;;1.15;1.05;;;13.60;99.90;;;;;;5067274;28;20024;-49
2022/07/05 00:14:50;;;;;;;2.78;2.00;;;13.50;99.90;;;;;;5068257;28;20023;-48
2022/07/05 00:17:17;;;;;;;4.05;2.13;;;13.60;99.90;;;;;;5069028;28;20754;-50
2022/07/05 00:19:42;;;;;;;1.50;1.40;;;13.50;99.90;;;;;;5068572;28;20025;-54
2022/07/05 00:22:11;;;;;;;4.38;1.98;;;13.50;99.90;;;;;;5066652;28;20146;-57
2022/07/05 00:24:37;;;;;;;3.60;1.52;;;13.50;99.90;;;;;;5045924;28;20081;-52
2022/07/05 00:27:03;;;;;;;5.47;1.85;;;13.40;99.90;;;;;;5066737;28;20032;-55
2022/07/05 00:29:29;;;;;;;2.28;1.30;;;13.40;99.90;;;;;;5062870;28;20446;-52
2022/07/05 00:31:54;;;;;;;1.30;1.20;;;13.40;99.90;;;;;;5065896;28;20541;-52
2022/07/05 00:34:20;;;;;;;1.38;1.27;;;13.40;99.90;;;;;;5070256;28;20044;-48
2022/07/05 00:36:46;;;;;;;2.50;1.27;;;13.40;99.90;;;;;;5071577;28;20036;-52
2022/07/05 00:39:12;;;;;;;1.63;1.40;;;13.40;99.90;;;;;;5059974;28;20017;-51
2022/07/05 00:41:38;;;;;;;4.65;1.80;;;13.30;99.90;;;;;;5068226;28;20443;-52
2022/07/05 00:44:06;;;;;;;2.30;1.60;;;13.30;99.90;;;;;;5073515;28;20021;-52
2022/07/05 00:46:32;;;;;;;4.88;1.60;;;13.20;99.90;;;;;;5072431;28;20030;-48
2022/07/05 00:48:59;;;;;;;1.38;1.27;;;13.30;99.90;;;;;;5063857;28;20117;-49
2022/07/05 00:51:26;;;;;;;2.17;1.95;;;13.30;99.90;;;;;;5065867;28;20021;-48
2022/07/05 00:53:51;;;;;;;3.13;1.63;;;13.20;99.90;;;;;;5078960;28;20028;-50
2022/07/05 00:56:19;;;;;;;2.35;1.33;;;13.20;99.90;;;;;;5072047;28;20177;-57
2022/07/05 00:58:45;;;;;;;2.42;1.58;;;13.20;99.90;;;;;;5069625;28;20089;-55
2022/07/05 01:01:11;;;;;;;2.70;1.23;;;13.20;99.90;;;;;;5069915;28;20020;-53
2022/07/05 01:03:37;;;;;;;1.55;1.42;;;13.10;99.90;;;;;;5063663;28;20518;-49
2022/07/05 01:06:06;;;;;;;2.75;1.83;;;13.10;99.90;;;;;;5069010;28;20116;-50
2022/07/05 01:08:35;;;;;;;2.53;1.80;;;13.10;99.90;;;;;;5066112;28;20035;-53
2022/07/05 01:11:01;;;;;;;2.92;1.42;;;13.10;99.90;;;;;;5055196;28;20032;-54
2022/07/05 01:13:27;;;;;;;3.85;1.50;;;13.10;99.90;;;;;;5071251;28;20031;-51
2022/07/05 01:15:53;;;;;;;2.17;1.60;;;13.00;99.90;;;;;;5074794;28;20183;-50
2022/07/05 01:18:20;;;;;;;4.20;1.50;;;13.00;99.90;;;;;;5067483;28;20518;-51
2022/07/05 01:20:48;;;;;;;2.00;1.83;;;13.00;99.90;;;;;;5053696;28;20029;-52
2022/07/05 01:23:14;;;;;;;2.50;1.45;;;13.00;99.90;;;;;;5070943;28;20569;-54
2022/07/05 01:25:40;;;;;;;1.48;1.27;;;13.00;99.90;;;;;;5074597;28;20060;-50
2022/07/05 01:28:06;;;;;;;3.50;1.85;;;12.90;99.90;;;;;;5071679;28;20115;-55
2022/07/05 01:30:34;;;;;;;5.25;1.85;;;12.90;99.90;;;;;;5071739;28;20056;-51
2022/07/05 01:33:00;;;;;;;2.17;1.42;;;12.90;99.90;;;;;;5074111;28;20032;-51
2022/07/05 01:35:25;;;;;;;2.65;1.85;;;12.90;99.90;;;;;;5072874;28;21034;-48
2022/07/05 01:37:52;;;;;;;3.30;2.03;;;12.90;99.90;;;;;;5053524;28;20170;-49
2022/07/05 01:40:19;;;;;;;3.17;2.05;;;12.80;99.90;;;;;;5079093;28;20021;-51
2022/07/05 01:42:46;;;;;;;2.63;1.50;;;12.80;99.90;;;;;;5053405;28;20033;-51
2022/07/05 01:45:12;;;;;;;2.60;2.20;;;12.70;99.90;;;;;;5078138;28;20032;-54
2022/07/05 01:47:44;;;;;;;2.45;1.58;;;12.70;99.90;;;;;;5068342;28;20036;-51
2022/07/05 01:50:14;;;;;;;2.92;2.15;;;12.70;99.90;;;;;;5052028;28;20502;-53
2022/07/05 01:52:43;;;;;;;2.38;1.88;;;12.60;99.90;;;;;;5070921;28;20036;-53
2022/07/05 01:55:09;;;;;;;4.55;1.80;;;12.60;99.90;;;;;;5042795;28;20037;-53
2022/07/05 01:57:35;;;;;;;2.50;2.00;;;12.60;99.90;;;;;;5070209;28;20114;-50
2022/07/05 02:00:01;;;;;;;2.08;1.80;;;12.50;99.90;;;;;;5070297;28;20037;-49
2022/07/05 02:02:27;;;;;;;4.05;2.20;;;12.60;99.90;;;;;;5070843;28;20107;-50
2022/07/05 02:04:52;;;;;;;2.25;2.05;;;12.50;99.90;;;;;;5078104;28;20028;-51
2022/07/05 02:07:18;;;;;;;2.33;1.73;;;12.50;99.90;;;;;;5071248;28;20024;-50
2022/07/05 02:09:43;;;;;;;2.72;1.90;;;12.40;99.90;;;;;;5068506;28;20032;-51
2022/07/05 02:12:09;;;;;;;3.78;1.95;;;12.40;99.90;;;;;;5052298;28;20036;-48
2022/07/05 02:14:35;;;;;;;2.88;2.05;;;12.40;99.90;;;;;;5070886;28;20721;-50
2022/07/05 02:17:01;;;;;;;3.22;2.08;;;12.40;99.90;;;;;;5070477;28;20466;-49
2022/07/05 02:19:27;;;;;;;4.55;2.22;;;12.30;99.90;;;;;;5070316;28;20025;-51
2022/07/05 02:21:52;;;;;;;2.42;2.03;;;12.30;99.90;;;;;;5069670;28;20210;-53
2022/07/05 02:24:19;;;;;;;3.65;2.03;;;12.30;99.90;;;;;;5070505;28;20017;-52
2022/07/05 02:26:45;;;;;;;2.72;2.10;;;12.30;99.90;;;;;;5050879;28;20498;-49
2022/07/05 02:29:10;;;;;;;3.55;2.03;;;12.30;99.90;;;;;;5063167;28;20078;-51
2022/07/05 02:31:36;;;;;;;2.83;2.03;;;12.20;99.90;;;;;;5076268;28;20021;-53
2022/07/05 02:34:01;;;;;;;2.92;1.55;;;12.20;99.90;;;;;;5071905;28;20093;-53
2022/07/05 02:36:27;;;;;;;3.97;2.38;;;12.20;99.90;;;;;;5070079;28;20028;-48
2022/07/05 02:38:52;;;;;;;2.60;1.98;;;12.20;99.90;;;;;;5064396;28;20031;-51
2022/07/05 02:41:18;;;;;;;2.33;2.00;;;12.20;99.90;;;;;;5069920;28;20434;-54
2022/07/05 02:43:44;;;;;;;3.17;2.00;;;12.10;99.90;;;;;;5045430;28;20519;-50
2022/07/05 02:46:09;;;;;;;2.42;2.20;;;12.10;99.90;;;;;;5070186;28;20016;-50
2022/07/05 02:48:36;;;;;;;3.97;2.50;;;12.10;99.90;;;;;;5069647;28;20495;-51
2022/07/05 02:51:03;;;;;;;2.20;1.95;;;12.10;99.90;;;;;;5068088;28;20067;-50
2022/07/05 02:53:29;;;;;;;5.70;2.15;;;12.10;99.90;;;;;;5069405;28;20040;-48
2022/07/05 02:55:55;;;;;;;2.60;2.40;;;12.00;99.90;;;;;;5071338;28;20028;-49
2022/07/05 02:58:20;;;;;;;2.72;2.00;;;12.00;99.90;;;;;;5069379;28;20078;-49
2022/07/05 03:00:47;;;;;;;2.60;2.38;;;12.00;99.90;;;;;;5068754;28;20133;-55
2022/07/05 03:03:14;;;;;;;5.30;1.98;;;12.00;99.90;;;;;;5053782;28;20017;-56
2022/07/05 03:05:39;;;;;;;3.40;2.38;;;12.00;99.90;;;;;;5045867;28;20036;-49
2022/07/05 03:08:05;;;;;;;3.35;2.20;;;12.00;99.90;;;;;;5073768;28;20024;-55
2022/07/05 03:10:31;;;;;;;3.30;2.55;;;12.00;99.90;;;;;;5068277;28;20093;-52
2022/07/05 03:12:56;;;;;;;4.05;2.67;;;12.00;99.90;;;;;;5068524;28;20021;-52
2022/07/05 03:15:22;;;;;;;2.80;2.10;;;11.90;99.90;;;;;;5069902;28;20025;-53
2022/07/05 03:17:48;;;;;;;3.92;2.50;;;12.00;99.90;;;;;;5071767;28;20027;-51
2022/07/05 03:20:13;;;;;;;2.22;2.03;;;12.00;99.90;;;;;;5050868;28;20439;-55
2022/07/05 03:22:39;;;;;;;2.40;2.20;;;11.90;99.90;;;;;;5069575;28;20028;-50
2022/07/05 03:25:05;;;;;;;3.50;2.45;;;12.00;99.90;;;;;;5046701;28;20460;-49
2022/07/05 03:27:31;;;;;;;2.30;2.10;;;11.90;99.90;;;;;;5062718;28;20438;-49
2022/07/05 03:29:57;;;;;;;2.75;2.50;;;12.00;99.90;;;;;;5070581;28;20028;-50
2022/07/05 03:32:22;;;;;;;3.58;2.30;;;12.00;99.90;;;;;;5068752;28;20052;-53
2022/07/05 03:34:48;;;;;;;2.78;2.35;;;12.00;99.90;;;;;;5068400;28;20390;-52
2022/07/05 03:37:14;;;;;;;3.42;2.67;;;12.00;99.90;;;;;;5068610;28;20032;-49
2022/07/05 03:39:39;;;;;;;3.30;2.53;;;12.00;99.90;;;;;;5055574;28;20033;-50
2022/07/05 03:42:05;;;;;;;3.40;2.60;;;12.00;99.90;;;;;;5049956;28;20034;-49
2022/07/05 03:44:32;;;;;;;3.35;2.55;;;12.00;99.90;;;;;;5068296;28;20560;-51
2022/07/05 03:46:58;;;;;;;2.55;2.33;;;11.90;99.90;;;;;;5069506;28;20039;-49
2022/07/05 03:49:24;;;;;;;2.67;2.35;;;12.00;99.90;;;;;;5018516;28;1217145;-51
2022/07/05 03:51:49;;;;;;;5.68;2.95;;;11.90;99.90;;;;;;5058921;28;20115;-50
2022/07/05 03:54:15;;;;;;;4.40;2.58;;;12.00;99.90;;;;;;5073746;28;20109;-53
2022/07/05 03:56:41;;;;;;;3.35;3.00;;;12.00;99.90;;;;;;5069380;28;20048;-53
2022/07/05 03:59:06;;;;;;;5.00;2.75;;;12.00;99.90;;;;;;5069902;28;20387;-50
2022/07/05 04:01:32;;;;;;;7.22;3.72;;;12.00;99.90;;;;;;5049668;28;20036;-48
2022/07/05 04:03:57;;;;;;;5.40;3.03;;;12.00;99.90;;;;;;5069081;28;20028;-52
2022/07/05 04:06:23;;;;;;;3.58;2.83;;;12.10;99.90;;;;;;5068315;28;20031;-53
2022/07/05 04:08:49;;;;;;;5.18;2.88;;;12.00;99.90;;;;;;5056022;28;20028;-52
2022/07/05 04:11:15;;;;;;;4.20;2.78;;;12.00;99.90;;;;;;5074166;28;20021;-52
2022/07/05 04:13:41;;;;;;;3.30;2.55;;;12.10;99.90;;;;;;5044765;28;20033;-52
2022/07/05 04:16:07;;;;;;;4.78;3.50;;;12.10;99.90;;;;;;5055225;28;20121;-49
2022/07/05 04:18:33;;;;;;;4.13;3.53;;;12.10;99.90;;;;;;5070967;28;20616;-53
2022/07/05 04:20:58;;;;;;;5.78;4.10;;;12.10;99.90;;;;;;5076914;28;20039;-51
2022/07/05 04:23:24;;;;;;;4.53;3.15;;;12.20;99.90;;;;;;5054335;28;20051;-49
2022/07/05 04:25:50;;;;;;;6.57;4.05;;;12.20;99.90;;;;;;5072700;28;20431;-53
2022/07/05 04:28:15;;;;;;;4.03;3.60;;;12.20;99.90;;;;;;5072345;28;20028;-53
2022/07/05 04:30:41;;;;;;;4.38;3.67;;;12.30;99.90;;;;;;5057914;28;20486;-48
2022/07/05 04:33:06;;;;;;;6.28;3.95;;;12.30;99.90;;;;;;5072079;28;20554;-49
2022/07/05 04:35:32;;;;;;;4.05;3.63;;;12.30;99.90;;;;;;5077070;28;20132;-52
2022/07/05 04:37:58;;;;;;;6.18;3.90;;;12.40;99.90;;;;;;5046550;28;20035;-52
2022/07/05 04:40:23;;;;;;;7.03;4.05;;;12.40;99.90;;;;;;5078205;28;20032;-50
2022/07/05 04:42:49;;;;;;;3.90;3.05;;;12.40;99.90;;;;;;5072746;28;20017;-51
2022/07/05 04:45:14;;;;;;;3.70;3.40;;;12.50;99.90;;;;;;5072028;28;20020;-52
2022/07/05 04:47:40;;;;;;;5.60;3.88;;;12.60;99.90;;;;;;5073840;28;20074;-55
2022/07/05 04:50:06;;;;;;;6.28;3.33;;;12.60;99.90;;;;;;5067724;28;20533;-48
2022/07/05 04:52:31;;;;;;;6.15;3.58;;;12.70;99.90;;;;;;5056084;28;20142;-50
2022/07/05 04:54:57;;;;;;;4.68;3.50;;;12.70;99.90;;;;;;5059298;28;20043;-56
2022/07/05 04:57:23;;;;;;;3.80;3.50;;;12.80;99.90;;;;;;5076315;28;20070;-52
2022/07/05 04:59:48;;;;;;;4.82;3.35;;;12.80;99.90;;;;;;5071014;28;20021;-54
2022/07/05 05:02:15;;;;;;;4.88;3.75;;;12.90;99.90;;;;;;5065131;28;20024;-51
2022/07/05 05:04:40;;;;;;;3.72;2.80;;;13.00;99.90;;;;;;5072977;28;20020;-52
2022/07/05 05:07:06;;;;;;;5.13;3.25;;;13.10;99.90;;;;;;5072020;28;20032;-52
2022/07/05 05:09:31;;;;;;;4.70;3.58;;;13.20;99.90;;;;;;5057326;28;20028;-52
2022/07/05 05:11:57;;;;;;;3.30;3.00;;;13.30;99.90;;;;;;5070306;28;20036;-52
2022/07/05 05:14:22;;;;;;;5.35;2.95;;;13.30;99.90;;;;;;5064794;28;20029;-49
2022/07/05 05:16:48;;;;;;;5.07;2.88;;;13.40;99.90;;;;;;5053497;28;20099;-48
2022/07/05 05:19:14;;;;;;;3.17;2.83;;;13.50;99.90;;;;;;5066009;28;20405;-52
2022/07/05 05:21:39;;;;;;;4.10;2.85;;;13.60;99.90;;;;;;5069732;28;20028;-50
2022/07/05 05:24:06;;;;;;;4.75;3.03;;;13.70;99.90;;;;;;5071193;28;20111;-51
2022/07/05 05:26:31;;;;;;;6.15;3.38;;;13.80;99.90;;;;;;5070172;28;20036;-52
2022/07/05 05:28:57;;;;;;;4.18;2.50;;;13.90;99.90;;;;;;5070038;28;20029;-48
2022/07/05 05:31:22;;;;;;;3.00;2.40;;;14.00;99.90;;;;;;5078722;28;20028;-50
2022/07/05 05:33:48;;;;;;;3.33;2.42;;;14.00;99.90;;;;;;5072432;28;20035;-50
2022/07/05 05:36:14;;;;;;;5.57;2.90;;;14.10;99.90;;;;;;5063300;28;20074;-53
2022/07/05 05:38:39;;;;;;;7.13;2.30;;;14.20;99.90;;;;;;5071179;28;20044;-52
2022/07/05 05:41:05;;;;;;;4.07;2.70;;;14.30;99.90;;;;;;5078834;28;20316;-59
2022/07/05 05:43:31;;;;;;;4.75;2.25;;;14.30;99.90;;;;;;5065948;28;20044;-51
2022/07/05 05:45:57;;;;;;;3.67;2.00;;;14.30;99.90;;;;;;5062166;28;20032;-53
2022/07/05 05:48:22;;;;;;;4.03;2.22;;;14.40;99.90;;;;;;5056430;28;20060;-56
2022/07/05 05:50:48;;;;;;;3.47;2.30;;;14.40;99.90;;;;;;5107918;22;20044;-53
2022/07/05 05:53:14;;;;;;;2.63;1.80;;;14.50;99.90;;;;;;5080443;28;20025;-56
2022/07/05 05:55:41;;;;;;;3.95;2.33;;;14.50;99.90;;;;;;5067397;28;20043;-55
2022/07/05 05:58:14;;;;;;;3.08;2.05;;;14.60;99.90;;;;;;5085153;28;20355;-57
2022/07/05 06:00:40;;;;;;;3.97;1.92;;;14.80;99.90;;;;;;5090572;28;20036;-52
2022/07/05 06:03:06;;;;;;;2.20;1.67;;;14.90;99.90;;;;;;5086728;28;20012;-53
2022/07/05 06:05:32;;;;;;;6.10;1.98;;;15.00;99.90;;;;;;5083344;28;20028;-51
2022/07/05 06:07:57;;;;;;;2.75;2.22;;;15.20;99.90;;;;;;5085099;28;20024;-54
2022/07/05 06:10:25;;;;;;;5.63;2.53;;;15.40;99.90;;;;;;5070258;28;20489;-52
2022/07/05 06:12:53;;;;;;;1.85;1.55;;;15.60;99.90;;;;;;5090529;28;20046;-55
2022/07/05 06:15:19;;;;;;;4.50;1.45;;;15.70;99.90;;;;;;5090799;28;20042;-54
2022/07/05 06:17:44;;;;;;;2.22;1.65;;;15.70;99.90;;;;;;5089965;28;20032;-52
2022/07/05 06:20:13;;;;;;;3.65;1.40;;;15.80;99.90;;;;;;5084887;28;20030;-52
2022/07/05 06:22:39;;;;;;;2.45;1.58;;;15.80;99.90;;;;;;5079135;28;20028;-50
2022/07/05 06:25:05;;;;;;;4.97;1.80;;;15.80;99.90;;;;;;5084903;28;20409;-55
2022/07/05 06:27:30;;;;;;;2.92;1.88;;;15.80;99.90;;;;;;5088449;28;20513;-55
2022/07/05 06:29:57;;;;;;;5.00;1.80;;;15.80;99.90;;;;;;5090690;28;20020;-55
2022/07/05 06:32:23;;;;;;;2.60;1.60;;;15.90;99.90;;;;;;5086715;28;20589;-53
2022/07/05 06:34:49;;;;;;;2.08;1.30;;;15.90;99.90;;;;;;5085661;28;20091;-56
2022/07/05 06:37:15;;;;;;;4.90;1.73;;;15.90;99.90;;;;;;5090124;28;20032;-53
2022/07/05 06:39:40;;;;;;;2.15;1.27;;;15.90;99.90;;;;;;5069587;28;20020;-54
2022/07/05 06:42:06;;;;;;;7.45;1.90;;;15.90;99.90;;;;;;5087903;28;20028;-56
2022/07/05 06:44:33;;;;;;;1.95;1.45;;;16.00;99.90;;;;;;5089600;28;20162;-58
2022/07/05 06:46:58;;;;;;;3.85;1.55;;;16.00;99.90;;;;;;5086018;28;20039;-51
2022/07/05 06:49:24;;;;;;;3.00;1.50;;;16.10;99.90;;;;;;5071595;28;20685;-53
2022/07/05 06:51:49;;;;;;;2.42;1.50;;;16.10;99.90;;;;;;5090024;28;20502;-57
2022/07/05 06:54:15;;;;;;;2.00;1.50;;;16.10;99.90;;;;;;5079014;28;20091;-53
2022/07/05 06:56:40;;;;;;;2.72;1.25;;;16.20;99.90;;;;;;5084124;28;20134;-53
2022/07/05 06:59:06;;;;;;;3.45;1.60;;;16.20;99.90;;;;;;5079399;28;20027;-55
2022/07/05 07:01:32;;;;;;;2.28;1.45;;;16.30;99.90;;;;;;5071316;28;20031;-52
2022/07/05 07:03:57;;;;;;;2.70;1.75;;;16.40;99.90;;;;;;5084912;28;20354;-57
2022/07/05 07:06:23;;;;;;;2.03;1.58;;;16.50;99.90;;;;;;5089475;28;20052;-57
2022/07/05 07:11:33;;;;;;;2.80;1.73;;;16.80;99.90;;;;;;5085207;28;20035;-55
2022/07/05 07:13:58;;;;;;;2.47;1.52;;;16.90;99.90;;;;;;5080768;28;20025;-57
2022/07/05 07:16:24;;;;;;;3.70;1.73;;;17.00;99.90;;;;;;5088801;28;20028;-50
2022/07/05 07:18:50;;;;;;;4.40;1.48;;;17.30;99.90;;;;;;5082938;28;20020;-56
2022/07/05 07:21:16;;;;;;;1.88;1.35;;;17.60;99.90;;;;;;5086854;28;20030;-58
2022/07/05 07:23:41;;;;;;;1.55;1.25;;;17.90;99.90;;;;;;5087888;28;20020;-57
2022/07/05 07:26:07;;;;;;;2.83;1.10;;;18.00;99.90;;;;;;5082482;28;20053;-57
2022/07/05 07:28:32;;;;;;;1.80;1.15;;;18.10;99.90;;;;;;5083591;28;20081;-53
2022/07/05 07:30:58;;;;;;;2.88;0.95;;;18.20;99.90;;;;;;5087892;28;20085;-55
2022/07/05 07:33:23;;;;;;;5.15;1.15;;;18.20;99.90;;;;;;5066267;28;20024;-55
2022/07/05 07:35:49;;;;;;;4.85;1.50;;;18.30;99.90;;;;;;5086644;28;20027;-55
2022/07/05 07:38:14;;;;;;;0.85;0.82;;;18.30;99.90;;;;;;5067678;28;20028;-51
2022/07/05 07:40:40;;;;;;;2.63;1.23;;;18.20;99.90;;;;;;5083902;28;20016;-49
2022/07/05 07:43:06;;;;;;;3.83;1.20;;;18.20;99.90;;;;;;5088537;28;20064;-54
2022/07/05 07:45:31;;;;;;;2.63;1.00;;;18.30;99.90;;;;;;5085308;28;20033;-50
2022/07/05 07:47:57;;;;;;;2.83;1.05;;;18.50;99.90;;;;;;5087677;28;20035;-55
2022/07/05 07:50:22;;;;;;;4.72;0.88;;;18.80;99.90;;;;;;5084606;28;20025;-56
2022/07/05 07:52:48;;;;;;;2.17;0.80;;;19.00;99.90;;;;;;5085336;28;20050;-57
2022/07/05 07:55:15;;;;;;;1.42;0.63;;;19.30;99.90;;;;;;5058937;28;20073;-56
2022/07/05 07:57:41;;;;;;;1.92;1.10;;;19.60;99.90;;;;;;5083804;28;20103;-50
2022/07/05 08:00:07;;;;;;;1.20;0.80;;;19.90;99.90;;;;;;5088330;28;20466;-52
2022/07/05 08:02:33;;;;;;;4.68;1.20;;;20.20;99.90;;;;;;5087180;28;20059;-53
2022/07/05 08:04:58;;;;;;;5.13;0.68;;;20.50;99.90;;;;;;5087426;28;20490;-52
2022/07/05 08:07:24;;;;;;;2.45;1.00;;;20.80;99.90;;;;;;5069414;28;20036;-54
2022/07/05 08:09:51;;;;;;;2.55;0.68;;;20.90;99.50;;;;;;5083223;28;20043;-52
2022/07/05 08:12:16;;;;;;;1.65;1.00;;;20.70;99.70;;;;;;5070291;28;20035;-53
2022/07/05 08:14:42;;;;;;;4.43;1.10;;;20.50;99.70;;;;;;5085472;28;20020;-50
2022/07/05 08:17:08;;;;;;;1.83;1.10;;;20.40;99.90;;;;;;5081659;28;20101;-52
2022/07/05 08:22:19;;;;;;;3.00;0.77;;;20.10;99.20;;;;;;5085105;28;20182;-56
2022/07/05 08:24:45;;;;;;;2.35;0.80;;;20.00;99.90;;;;;;5083760;28;20020;-57
2022/07/05 08:27:11;;;;;;;4.88;1.08;;;19.80;99.90;;;;;;5067160;28;20028;-57
2022/07/05 08:29:37;;;;;;;1.50;0.73;;;19.70;99.90;;;;;;5087625;28;20558;-54
2022/07/05 08:32:04;;;;;;;1.67;0.52;;;19.60;99.90;;;;;;5088323;28;20016;-54
2022/07/05 08:34:30;;;;;;;1.27;0.90;;;19.60;99.90;;;;;;5083107;28;20130;-51
2022/07/05 08:36:56;;;;;;;1.83;0.77;;;19.60;99.90;;;;;;5087925;28;20703;-51
2022/07/05 08:39:21;;;;;;;2.90;0.80;;;19.50;99.80;;;;;;5082257;28;20646;-53
2022/07/05 08:41:49;;;;;;;1.23;0.60;;;19.50;99.90;;;;;;5088275;28;20028;-52
2022/07/05 08:44:19;;;;;;;0.95;0.40;;;19.60;99.60;;;;;;5061296;28;20028;-48
2022/07/05 08:46:46;;;;;;;3.03;0.57;;;19.80;99.90;;;;;;5084571;28;20028;-51
2022/07/05 08:49:13;;;;;;;0.73;0.50;;;20.10;98.60;;;;;;5086092;28;20031;-53
2022/07/05 08:51:41;;;;;;;2.83;0.90;;;20.40;98.00;;;;;;5086207;28;20035;-49
2022/07/05 08:54:12;;;;;;;1.65;0.73;;;20.70;97.50;;;;;;5077411;28;20120;-50
2022/07/05 08:56:40;;;;;;;1.27;0.85;;;20.70;95.50;;;;;;5082729;28;20666;-49
2022/07/05 08:59:06;;;;;;;3.92;0.80;;;20.70;95.60;;;;;;5083737;28;20024;-56
2022/07/05 09:01:34;;;;;;;2.15;0.57;;;20.40;94.50;;;;;;5088095;28;20662;-48
2022/07/05 09:04:03;;;;;;;1.73;0.55;;;20.20;95.20;;;;;;5077157;28;20529;-49
2022/07/05 09:06:34;;;;;;;1.15;0.40;;;19.90;95.40;;;;;;5085435;28;20024;-51
2022/07/05 09:09:00;;;;;;;2.20;0.80;;;19.70;96.30;;;;;;5069126;28;20153;-52
2022/07/05 09:11:36;;;;;;;3.50;0.68;;;19.70;97.70;;;;;;5091098;28;20016;-53
2022/07/05 09:14:04;;;;;;;0.45;0.38;;;19.40;96.10;;;;;;5088985;28;20378;-54
2022/07/05 09:16:31;;;;;;;1.75;0.40;;;19.40;97.30;;;;;;5090716;28;20028;-56
2022/07/05 09:19:08;;;;;;;0.95;0.40;;;19.50;95.80;;;;;;5091158;28;20089;-54
2022/07/05 09:21:33;;;;;;;1.02;0.65;;;19.70;96.70;;;;;;5089822;28;20028;-53
2022/07/05 09:24:05;;;;;;;1.45;0.40;;;19.80;94.50;;;;;;5083014;28;20028;-57
2022/07/05 09:26:35;;;;;;;0.95;0.80;;;20.00;95.70;;;;;;5088726;28;20024;-55
2022/07/05 09:29:09;;;;;;;4.50;0.70;;;20.20;94.30;;;;;;5091048;28;20359;-57
2022/07/05 09:31:37;;;;;;;2.10;0.60;;;20.30;95.10;;;;;;5083027;28;20056;-55
2022/07/05 09:34:12;;;;;;;1.92;0.73;;;20.40;94.70;;;;;;5086227;28;20028;-54
2022/07/05 09:37:01;;;;;;;1.05;0.30;;;20.50;94.90;;;;;;5089160;28;20028;-53
2022/07/05 09:39:30;;;;;;;2.72;0.60;;;20.70;94.60;;;;;;5067888;28;20050;-56
2022/07/05 09:42:11;;;;;;;0.80;0.50;;;20.50;94.50;;;;;;5087426;28;20021;-56
2022/07/05 09:44:47;;;;;;;0.88;0.68;;;20.50;95.70;;;;;;5091351;28;20143;-50
2022/07/05 09:47:15;;;;;;;2.10;0.50;;;20.70;95.50;;;;;;5087013;28;20438;-58
2022/07/05 09:49:43;;;;;;;1.30;0.50;;;20.80;95.90;;;;;;5091255;28;20102;-54
2022/07/05 09:52:09;;;;;;;1.02;0.45;;;21.00;94.00;;;;;;5085600;28;20675;-51
2022/07/05 09:54:35;;;;;;;0.57;0.47;;;21.10;94.10;;;;;;5091368;28;20484;-52
2022/07/05 09:57:01;;;;;;;0.50;0.22;;;21.20;92.20;;;;;;5084995;28;20036;-52
2022/07/05 09:59:26;;;;;;;0.75;0.43;;;21.30;91.00;;;;;;5090441;28;20107;-50
2022/07/05 10:01:52;;;;;;;1.42;0.22;;;21.20;90.40;;;;;;5084003;28;20107;-51
2022/07/05 10:04:18;;;;;;;0.95;0.63;;;21.00;90.40;;;;;;5089439;28;20501;-56
2022/07/05 10:06:44;;;;;;;1.08;0.45;;;21.00;92.10;;;;;;5091444;28;20032;-55
2022/07/05 10:09:11;;;;;;;0.70;0.30;;;21.00;92.60;;;;;;5088532;28;20539;-55
2022/07/05 10:11:43;;;;;;;0.30;0.30;;;20.80;92.10;;;;;;5090867;28;20028;-54
2022/07/05 10:14:15;;;;;;;0.82;0.32;;;20.70;93.30;;;;;;5087586;28;20025;-52
2022/07/05 10:16:45;;;;;;;1.63;0.63;;;21.00;93.10;;;;;;5084520;28;20116;-52
2022/07/05 10:19:17;;;;;;;0.80;0.40;;;21.20;91.40;;;;;;5081313;28;20423;-57
2022/07/05 10:21:44;;;;;;;0.40;0.40;;;21.20;92.70;;;;;;5088376;28;20056;-51
2022/07/05 10:24:11;;;;;;;1.38;0.50;;;21.50;93.50;;;;;;5063273;28;20042;-51
2022/07/05 10:26:38;;;;;;;2.42;1.15;;;21.70;92.20;;;;;;5086172;28;20020;-56
2022/07/05 10:29:04;;;;;;;2.80;0.43;;;21.80;92.50;;;;;;5090024;28;20027;-51
2022/07/05 10:31:30;;;;;;;1.50;0.40;;;21.70;91.60;;;;;;5088582;28;20020;-55
2022/07/05 10:34:07;;;;;;;0.73;0.38;;;21.50;92.20;;;;;;5085420;28;20024;-53
2022/07/05 10:36:33;;;;;;;0.93;0.60;;;21.30;91.00;;;;;;5069638;28;20099;-53
2022/07/05 10:38:59;;;;;;;2.42;0.50;;;21.10;92.00;;;;;;5082752;28;20145;-50
2022/07/05 10:41:26;;;;;;;0.40;0.30;;;21.20;92.10;;;;;;5068764;28;20541;-55
2022/07/05 10:43:58;;;;;;;0.38;0.38;;;21.30;91.50;;;;;;5088753;28;20153;-52
2022/07/05 10:46:37;;;;;;;2.08;0.50;;;21.20;90.80;;;;;;5089594;28;20028;-55
2022/07/05 10:49:17;;;;;;;2.70;0.50;;;21.10;90.90;;;;;;5089307;28;20036;-53
2022/07/05 10:51:43;;;;;;;4.78;0.50;;;21.00;91.80;;;;;;5089573;28;20024;-54
2022/07/05 10:54:09;;;;;;;0.90;0.30;;;21.00;92.40;;;;;;5087272;28;20040;-52
2022/07/05 10:56:36;;;;;;;1.20;0.28;;;21.00;91.90;;;;;;5084228;28;20028;-55
2022/07/05 10:59:20;;;;;;;1.55;0.63;;;21.20;91.80;;;;;;5085044;28;20016;-54
2022/07/05 11:01:45;;;;;;;0.45;0.20;;;21.40;91.30;;;;;;5083018;28;20031;-50
2022/07/05 11:04:19;;;;;;;1.23;0.30;;;21.40;92.30;;;;;;5086410;28;20020;-52
2022/07/05 11:06:49;;;;;;;4.07;0.47;;;21.50;90.10;;;;;;5089704;28;20027;-54
2022/07/05 11:09:17;;;;;;;2.17;0.52;;;21.40;88.70;;;;;;5085550;28;20108;-53
2022/07/05 11:12:00;;;;;;;1.85;0.30;;;21.20;90.00;;;;;;5089634;28;20512;-51
2022/07/05 11:14:26;;;;;;;4.28;0.50;;;21.20;90.40;;;;;;5082249;28;20025;-59
2022/07/05 11:17:15;;;;;;;1.15;0.60;;;21.30;90.70;;;;;;5088577;28;20028;-54
2022/07/05 11:20:13;;;;;;;1.20;0.80;;;21.20;90.80;;;;;;5084667;28;20459;-54
2022/07/05 11:22:41;;;;;;;0.73;0.38;;;21.30;91.00;;;;;;5064870;28;20470;-54
2022/07/05 11:25:10;;;;;;;1.25;0.50;;;21.40;91.80;;;;;;5084613;28;20016;-52
2022/07/05 11:27:36;;;;;;;1.23;0.30;;;21.60;90.70;;;;;;5087246;28;20035;-53
2022/07/05 11:30:03;;;;;;;2.08;0.50;;;21.60;90.50;;;;;;5069495;28;20161;-54
2022/07/05 11:32:28;;;;;;;2.17;0.50;;;21.70;91.00;;;;;;5089509;28;20016;-58
2022/07/05 11:35:10;;;;;;;0.82;0.32;;;21.60;90.80;;;;;;5083457;28;20020;-54
2022/07/05 11:37:59;;;;;;;0.85;0.52;;;21.50;91.10;;;;;;5084390;28;20504;-53
2022/07/05 11:40:27;;;;;;;1.55;0.95;;;21.60;89.80;;;;;;5081974;28;20075;-56
2022/07/05 11:42:52;;;;;;;1.75;0.50;;;21.60;90.40;;;;;;5089065;28;20065;-53
2022/07/05 11:45:18;;;;;;;1.10;0.68;;;21.60;91.10;;;;;;5085386;28;20438;-54
2022/07/05 11:47:44;;;;;;;0.88;0.20;;;21.50;90.00;;;;;;5083602;28;20027;-53
2022/07/05 11:50:11;;;;;;;0.93;0.50;;;21.40;89.40;;;;;;5204408;22;20052;-55
2022/07/05 11:52:37;;;;;;;1.92;0.80;;;21.40;88.70;;;;;;5079318;28;20444;-55
2022/07/05 11:55:06;;;;;;;1.85;0.60;;;21.40;90.90;;;;;;5072340;28;20112;-54
2022/07/05 11:57:31;;;;;;;1.15;0.38;;;21.50;88.60;;;;;;5080227;28;20059;-57
2022/07/05 11:59:57;;;;;;;1.30;0.60;;;21.50;87.10;;;;;;5079685;28;20048;-56
2022/07/05 12:02:23;;;;;;;1.23;0.52;;;21.50;86.30;;;;;;5075234;28;20058;-52
2022/07/05 12:04:55;;;;;;;4.82;0.70;;;21.60;90.20;;;;;;5080722;28;20050;-51
2022/07/05 12:07:40;;;;;;;0.98;0.40;;;21.70;88.60;;;;;;5074460;28;20414;-53
2022/07/05 12:12:51;;;;;;;3.42;0.50;;;21.90;90.50;;;;;;5080333;28;20086;-56
2022/07/05 12:15:19;;;;;;;0.45;0.43;;;22.20;89.60;;;;;;5067365;28;20052;-51
2022/07/05 12:17:51;;;;;;;4.40;0.77;;;22.40;86.30;;;;;;5079445;28;20479;-52
2022/07/05 12:20:24;;;;;;;1.83;0.52;;;22.50;86.30;;;;;;5077061;28;20024;-51
2022/07/05 12:22:50;;;;;;;3.70;0.60;;;22.50;86.70;;;;;;5084361;28;20024;-53
2022/07/05 12:25:21;;;;;;;2.55;0.90;;;22.70;88.80;;;;;;5078271;28;20016;-52
2022/07/05 12:27:48;;;;;;;0.93;0.43;;;22.70;87.20;;;;;;5076846;28;20086;-49
2022/07/05 12:30:15;;;;;;;0.85;0.40;;;22.80;86.50;;;;;;5063465;28;20112;-51
2022/07/05 12:33:00;;;;;;;0.77;0.55;;;22.60;86.10;;;;;;5076620;28;20029;-53
2022/07/05 12:35:26;;;;;;;1.38;0.40;;;22.40;86.60;;;;;;5076118;28;20050;-47
2022/07/05 12:37:52;;;;;;;2.78;0.70;;;22.30;88.10;;;;;;5072133;28;20395;-52
2022/07/05 12:40:22;;;;;;;1.55;0.57;;;22.40;86.50;;;;;;5073685;28;20024;-49
2022/07/05 12:43:03;;;;;;;2.28;0.55;;;22.40;87.80;;;;;;5084613;28;20028;-47
2022/07/05 12:45:29;;;;;;;0.77;0.73;;;22.60;89.60;;;;;;5077163;28;20112;-51
2022/07/05 12:47:59;;;;;;;1.80;0.70;;;22.60;88.30;;;;;;5065687;28;20099;-52
2022/07/05 12:50:31;;;;;;;0.65;0.45;;;22.40;86.90;;;;;;5077592;28;20036;-48
2022/07/05 12:58:32;;;;;;;1.25;0.60;;;21.90;90.80;;;;;;5084498;28;20035;-49
2022/07/05 13:00:58;;;;;;;2.78;0.70;;;21.80;90.10;;;;;;5083248;28;20028;-54